Time;durP1;ratioP1;P1;durP2;ratioP2;P2;SDS_P1;SDS_P2;PMS_P1;PMS_P2;Temp;Humidity;BMP_temperature;BMP_pressure;BME280_temperature;BME280_humidity;BME280_pressure;Samples;Min_cycle;Max_cycle;Signal;HPM_P1;HPM_P2
2022/12/12 00:02:44;;;;;;;64.17;23.03;;;-2.20;99.90;;;;;;10356183;28;20021;-84
2022/12/12 00:07:45;;;;;;;75.03;25.63;;;-2.20;99.90;;;;;;10325152;28;20030;-86
2022/12/12 00:12:45;;;;;;;71.00;25.53;;;-2.20;99.90;;;;;;10324209;28;20034;-84
2022/12/12 00:17:46;;;;;;;71.47;25.80;;;-2.20;99.90;;;;;;10321428;28;20184;-84
2022/12/12 00:22:46;;;;;;;80.60;27.30;;;-2.20;99.90;;;;;;10324351;28;20038;-83
2022/12/12 00:27:47;;;;;;;62.63;24.87;;;-2.20;99.90;;;;;;10324298;28;20032;-83
2022/12/12 00:32:47;;;;;;;64.53;24.47;;;-2.20;99.90;;;;;;10323384;28;20550;-83
2022/12/12 00:37:48;;;;;;;66.80;26.30;;;-2.10;99.90;;;;;;10308875;28;20038;-86
2022/12/12 00:42:48;;;;;;;64.00;22.10;;;-2.20;99.90;;;;;;10321937;28;20601;-83
2022/12/12 00:47:49;;;;;;;51.93;21.30;;;-2.20;99.90;;;;;;10321288;28;20030;-87
2022/12/12 00:52:49;;;;;;;52.37;20.03;;;-2.20;99.90;;;;;;10323388;28;20482;-83
2022/12/12 00:57:50;;;;;;;56.60;21.73;;;-2.20;99.90;;;;;;10322602;28;20618;-82
2022/12/12 01:02:51;;;;;;;65.43;24.00;;;-2.10;99.90;;;;;;10322547;28;20042;-84
2022/12/12 01:07:51;;;;;;;57.27;22.70;;;-2.20;99.90;;;;;;10320795;28;20038;-83
2022/12/12 01:12:52;;;;;;;52.77;19.93;;;-2.10;99.90;;;;;;10320311;28;20034;-82
2022/12/12 01:17:53;;;;;;;59.60;21.47;;;-2.20;99.90;;;;;;10320246;28;20042;-84
2022/12/12 01:22:53;;;;;;;55.03;19.27;;;-2.20;99.90;;;;;;10321540;28;20038;-85
2022/12/12 01:27:54;;;;;;;63.20;22.07;;;-2.20;99.90;;;;;;10320166;28;20037;-85
2022/12/12 01:32:54;;;;;;;55.10;21.43;;;-2.20;99.90;;;;;;10319568;28;20149;-83
2022/12/12 01:37:55;;;;;;;57.87;21.03;;;-2.20;99.90;;;;;;10319749;28;20042;-82
2022/12/12 01:42:55;;;;;;;54.40;18.07;;;-2.20;99.90;;;;;;10321280;28;20101;-87
2022/12/12 01:47:56;;;;;;;42.77;15.13;;;-2.20;99.90;;;;;;10320173;28;20691;-87
2022/12/12 01:52:57;;;;;;;53.60;19.50;;;-2.30;99.90;;;;;;10320662;28;20486;-83
2022/12/12 01:57:57;;;;;;;46.10;16.90;;;-2.30;99.90;;;;;;10319828;28;20039;-83
2022/12/12 02:02:59;;;;;;;58.23;20.80;;;-2.30;99.90;;;;;;10319725;28;20050;-82
2022/12/12 02:08:02;;;;;;;47.00;18.97;;;-2.40;99.90;;;;;;10320074;28;20513;-83
2022/12/12 02:13:07;;;;;;;51.70;21.10;;;-2.40;99.90;;;;;;10320309;28;20030;-86
2022/12/12 02:18:26;;;;;;;48.87;19.90;;;-2.40;99.90;;;;;;10320097;28;20436;-83
2022/12/12 02:23:39;;;;;;;56.63;18.93;;;-2.40;99.90;;;;;;10314146;28;20121;-84
2022/12/12 02:28:43;;;;;;;50.43;18.70;;;-2.40;99.90;;;;;;10351578;28;20034;-83
2022/12/12 02:34:05;;;;;;;50.07;19.27;;;-2.50;99.90;;;;;;10318941;28;20050;-85
2022/12/12 02:39:24;;;;;;;47.77;17.33;;;-2.50;99.90;;;;;;10319587;28;20092;-88
2022/12/12 02:44:32;;;;;;;51.27;18.23;;;-2.50;99.90;;;;;;10318424;28;20051;-83
2022/12/12 02:49:43;;;;;;;56.17;18.67;;;-2.50;99.90;;;;;;10319884;28;20033;-83
2022/12/12 02:54:44;;;;;;;44.93;16.90;;;-2.50;99.90;;;;;;10312393;28;20034;-84
2022/12/12 03:00:10;;;;;;;45.97;17.77;;;-2.50;99.90;;;;;;10318895;28;20022;-85
2022/12/12 03:10:49;;;;;;;55.92;21.52;;;-2.60;99.90;;;;;;10320250;28;20141;-86
2022/12/12 03:16:17;;;;;;;51.87;19.97;;;-2.50;99.90;;;;;;10322038;28;20077;-84
2022/12/12 03:21:39;;;;;;;53.00;20.27;;;-2.50;99.90;;;;;;10326868;28;20030;-84
2022/12/12 03:26:46;;;;;;;42.07;17.50;;;-2.50;99.90;;;;;;10326996;28;20061;-84
2022/12/12 03:31:53;;;;;;;55.20;21.27;;;-2.40;99.90;;;;;;10324190;28;20068;-84
2022/12/12 03:36:58;;;;;;;59.20;22.27;;;-2.50;99.90;;;;;;10325139;28;20042;-87
2022/12/12 03:42:10;;;;;;;62.03;24.60;;;-2.50;99.90;;;;;;10297767;28;20279;-83
2022/12/12 03:47:43;;;;;;;52.33;19.57;;;-2.50;99.90;;;;;;10306525;28;20723;-84
2022/12/12 03:52:47;;;;;;;56.87;21.93;;;-2.40;99.90;;;;;;10322835;28;20069;-84
2022/12/12 03:57:59;;;;;;;59.40;21.50;;;-2.40;99.90;;;;;;10325261;28;20038;-85
2022/12/12 04:03:14;;;;;;;50.17;20.43;;;-2.40;99.90;;;;;;10334017;28;20076;-88
2022/12/12 04:08:16;;;;;;;58.60;21.17;;;-2.40;99.90;;;;;;10327103;28;20463;-85
2022/12/12 04:13:39;;;;;;;52.43;19.80;;;-2.40;99.90;;;;;;10323850;28;20042;-84
2022/12/12 04:18:43;;;;;;;57.30;21.97;;;-2.40;99.90;;;;;;10303074;28;20046;-83
2022/12/12 04:23:52;;;;;;;50.27;20.23;;;-2.40;99.90;;;;;;10319577;28;20391;-86
2022/12/12 04:29:15;;;;;;;59.63;21.80;;;-2.40;99.90;;;;;;10320117;28;20026;-84
2022/12/12 04:34:37;;;;;;;60.97;22.13;;;-2.40;99.90;;;;;;10323141;28;20742;-85
2022/12/12 04:39:41;;;;;;;62.07;23.87;;;-2.40;99.90;;;;;;10323524;28;20573;-83
2022/12/12 04:44:43;;;;;;;67.23;24.67;;;-2.40;99.90;;;;;;10322537;28;20030;-83
2022/12/12 04:49:45;;;;;;;65.03;25.57;;;-2.40;99.90;;;;;;10322408;28;20076;-85
2022/12/12 04:54:51;;;;;;;57.47;21.80;;;-2.40;99.90;;;;;;10323229;28;20031;-85
2022/12/12 04:59:51;;;;;;;74.25;25.13;;;-2.40;99.90;;;;;;10319809;28;20104;-87
2022/12/12 05:04:57;;;;;;;59.73;22.57;;;-2.40;99.90;;;;;;10320047;28;20089;-87
2022/12/12 05:09:58;;;;;;;;;;;-2.30;99.90;;;;;;10321892;28;20780;-85
2022/12/12 05:14:59;;;;;;;59.93;23.63;;;-2.40;99.90;;;;;;10321541;28;19922;-84
2022/12/12 05:19:59;;;;;;;72.10;25.77;;;-2.40;99.90;;;;;;10322299;28;20049;-88
2022/12/12 05:25:00;;;;;;;77.70;30.33;;;-2.40;99.90;;;;;;10318410;28;20042;-84
2022/12/12 05:30:00;;;;;;;83.00;30.50;;;-2.40;99.90;;;;;;10317037;28;20162;-84
2022/12/12 05:35:01;;;;;;;73.07;26.63;;;-2.40;99.90;;;;;;10320869;28;20112;-86
2022/12/12 05:40:03;;;;;;;75.47;26.20;;;-2.40;99.90;;;;;;10320932;28;20109;-87
2022/12/12 05:45:05;;;;;;;71.93;26.93;;;-2.40;99.90;;;;;;10321611;28;20026;-85
2022/12/12 05:50:06;;;;;;;78.90;27.53;;;-2.40;99.90;;;;;;10321274;28;20129;-85
2022/12/12 05:55:07;;;;;;;77.20;29.90;;;-2.40;99.90;;;;;;10321138;28;20240;-85
2022/12/12 06:00:08;;;;;;;94.00;36.07;;;-2.40;99.90;;;;;;10321073;28;20482;-86
2022/12/12 06:05:09;;;;;;;93.87;35.23;;;-2.40;99.90;;;;;;10320399;28;20037;-84
2022/12/12 06:10:10;;;;;;;96.57;36.73;;;-2.40;99.90;;;;;;10320746;28;20390;-86
2022/12/12 06:15:10;;;;;;;85.13;31.63;;;-2.40;99.90;;;;;;10320586;28;20046;-86
2022/12/12 06:20:11;;;;;;;103.77;40.07;;;-2.30;99.90;;;;;;10320429;28;20038;-84
2022/12/12 06:25:11;;;;;;;89.87;32.77;;;-2.30;99.90;;;;;;10319734;28;20038;-83
2022/12/12 06:30:12;;;;;;;87.13;32.23;;;-2.30;99.90;;;;;;10320170;28;20026;-83
2022/12/12 06:35:13;;;;;;;92.07;34.40;;;-2.30;99.90;;;;;;10319525;28;20617;-86
2022/12/12 06:40:14;;;;;;;89.90;33.70;;;-2.20;99.90;;;;;;10319729;28;20056;-84
2022/12/12 06:45:15;;;;;;;107.60;39.70;;;-2.20;99.90;;;;;;10319888;28;20418;-85
2022/12/12 06:50:16;;;;;;;90.17;33.37;;;-2.20;99.90;;;;;;10327137;28;20648;-84
2022/12/12 06:55:17;;;;;;;97.97;36.57;;;-2.20;99.90;;;;;;10332907;28;20046;-85
2022/12/12 07:00:18;;;;;;;102.13;40.23;;;-2.20;99.90;;;;;;10333069;28;20033;-86
2022/12/12 07:05:18;;;;;;;112.47;48.53;;;-2.10;99.90;;;;;;10332605;28;20034;-84
2022/12/12 07:10:19;;;;;;;98.57;42.67;;;-2.10;99.90;;;;;;10332774;28;20038;-84
2022/12/12 07:15:19;;;;;;;105.27;41.60;;;-2.10;99.90;;;;;;10332152;28;20038;-88
2022/12/12 07:20:20;;;;;;;98.63;37.77;;;-2.00;99.90;;;;;;10333222;28;20027;-87
2022/12/12 07:25:20;;;;;;;87.27;33.97;;;-2.00;99.90;;;;;;10333210;28;20382;-85
2022/12/12 07:30:21;;;;;;;82.87;30.50;;;-2.00;99.90;;;;;;10332599;28;20049;-85
2022/12/12 07:35:22;;;;;;;92.90;36.07;;;-1.90;99.90;;;;;;10332356;28;20073;-85
2022/12/12 07:40:23;;;;;;;75.03;29.40;;;-1.90;99.90;;;;;;10332021;28;20852;-84
2022/12/12 07:45:23;;;;;;;76.57;30.03;;;-1.90;99.90;;;;;;10332512;28;20034;-87
2022/12/12 07:50:24;;;;;;;85.83;32.60;;;-1.80;99.90;;;;;;10332279;28;20594;-86
2022/12/12 07:55:24;;;;;;;94.03;35.53;;;-1.80;99.90;;;;;;10332513;28;20042;-84
2022/12/12 08:00:25;;;;;;;105.07;42.10;;;-1.70;99.90;;;;;;10327523;28;20080;-84
2022/12/12 08:05:26;;;;;;;99.90;38.80;;;-1.70;99.90;;;;;;10323784;28;20038;-83
2022/12/12 08:10:26;;;;;;;121.47;48.57;;;-1.60;99.90;;;;;;10326510;28;20026;-86
2022/12/12 08:15:27;;;;;;;107.00;44.77;;;-1.60;99.90;;;;;;10324863;28;20034;-87
2022/12/12 08:20:27;;;;;;;113.07;43.73;;;-1.60;99.90;;;;;;10325469;28;20854;-86
2022/12/12 08:25:28;;;;;;;145.63;54.27;;;-1.50;99.90;;;;;;10325299;28;20034;-86
2022/12/12 08:30:28;;;;;;;99.73;39.83;;;-1.50;99.90;;;;;;10324939;28;20454;-86
2022/12/12 08:35:31;;;;;;;128.57;57.03;;;-1.40;99.90;;;;;;10323890;28;20124;-85
2022/12/12 08:40:34;;;;;;;245.03;113.83;;;-1.40;99.90;;;;;;10323821;28;20031;-83
2022/12/12 08:45:37;;;;;;;120.97;52.93;;;-1.40;99.90;;;;;;10324746;28;20027;-85
2022/12/12 08:50:40;;;;;;;85.03;36.63;;;-1.30;99.90;;;;;;10323568;28;20042;-83
2022/12/12 08:55:40;;;;;;;81.77;34.53;;;-1.20;99.90;;;;;;10323827;28;20125;-84
2022/12/12 09:00:41;;;;;;;97.27;38.53;;;-1.20;99.90;;;;;;10323027;28;20046;-87
2022/12/12 09:05:45;;;;;;;95.13;39.30;;;-1.10;99.90;;;;;;10322757;28;20031;-82
2022/12/12 09:10:49;;;;;;;87.53;37.53;;;-1.00;99.90;;;;;;10322881;28;20386;-85
2022/12/12 09:15:50;;;;;;;85.80;34.77;;;-0.90;99.90;;;;;;10321105;28;20062;-84
2022/12/12 09:20:53;;;;;;;103.33;39.47;;;-0.90;99.90;;;;;;10322363;28;20026;-85
2022/12/12 09:25:54;;;;;;;89.47;36.27;;;-0.90;99.90;;;;;;10322683;28;20034;-87
2022/12/12 09:30:54;;;;;;;89.30;32.63;;;-0.80;99.90;;;;;;10321909;28;20036;-84
2022/12/12 09:35:57;;;;;;;81.23;33.73;;;-0.80;99.90;;;;;;10321718;28;20161;-85
2022/12/12 09:41:10;;;;;;;78.40;32.57;;;-0.90;99.90;;;;;;10320747;28;20026;-87
2022/12/12 09:46:47;;;;;;;72.57;32.30;;;-0.90;99.90;;;;;;10322139;28;20026;-86
2022/12/12 09:51:50;;;;;;;122.77;43.77;;;-0.90;99.90;;;;;;10314699;28;20034;-85
2022/12/12 09:57:08;;;;;;;83.53;34.77;;;-0.90;99.90;;;;;;10321833;28;20165;-88
2022/12/12 10:02:41;;;;;;;87.43;35.53;;;-0.90;99.90;;;;;;10320756;28;20030;-85
2022/12/12 10:08:16;;;;;;;83.37;35.53;;;-0.80;99.90;;;;;;10305573;28;20593;-86
2022/12/12 10:13:24;;;;;;;91.23;33.97;;;-0.70;99.90;;;;;;10285781;28;20048;-86
2022/12/12 10:18:33;;;;;;;75.23;29.33;;;-0.70;99.90;;;;;;10320207;28;20050;-83
2022/12/12 10:23:46;;;;;;;72.70;28.00;;;-0.70;99.90;;;;;;10320895;28;20491;-85
2022/12/12 10:28:56;;;;;;;79.83;30.87;;;-0.80;99.90;;;;;;10306931;28;20041;-86
2022/12/12 10:34:28;;;;;;;68.83;27.60;;;-0.70;99.90;;;;;;10320309;28;20136;-83
2022/12/12 10:39:50;;;;;;;80.30;32.07;;;-0.70;99.90;;;;;;10311485;28;20114;-84
2022/12/12 10:45:21;;;;;;;70.97;28.33;;;-0.60;99.90;;;;;;10320924;28;20036;-89
2022/12/12 10:50:37;;;;;;;76.17;33.33;;;-0.60;99.90;;;;;;10319969;28;20023;-84
2022/12/12 10:55:59;;;;;;;85.50;36.67;;;-0.60;99.90;;;;;;10320487;28;20041;-84
2022/12/12 11:01:03;;;;;;;92.03;37.27;;;-0.50;99.90;;;;;;10318377;28;20031;-83
2022/12/12 11:06:06;;;;;;;113.27;47.40;;;-0.50;99.90;;;;;;10317109;28;20443;-83
2022/12/12 11:11:18;;;;;;;84.03;33.90;;;-0.40;99.90;;;;;;10320142;28;20088;-83
2022/12/12 11:16:26;;;;;;;78.47;32.70;;;-0.40;99.90;;;;;;10319998;28;20035;-83
2022/12/12 11:21:30;;;;;;;76.53;30.97;;;-0.30;99.90;;;;;;10318182;28;20024;-83
2022/12/12 11:26:40;;;;;;;80.00;32.10;;;-0.40;99.90;;;;;;10320400;28;20077;-83
2022/12/12 11:31:42;;;;;;;87.00;33.77;;;-0.40;99.90;;;;;;10320428;28;20088;-84
2022/12/12 11:36:43;;;;;;;90.13;35.17;;;-0.40;99.90;;;;;;10322348;28;20038;-88
2022/12/12 11:42:12;;;;;;;85.80;37.30;;;-0.30;99.90;;;;;;10327491;28;20022;-88
2022/12/12 11:47:37;;;;;;;89.87;36.07;;;-0.30;99.90;;;;;;10327997;28;20062;-88
2022/12/12 11:52:37;;;;;;;89.60;35.77;;;-0.30;99.90;;;;;;10326538;28;20030;-83
2022/12/12 11:58:05;;;;;;;115.10;49.47;;;-0.20;99.90;;;;;;10327242;28;20453;-87
2022/12/12 12:03:30;;;;;;;90.07;36.57;;;-0.20;99.90;;;;;;10313637;28;20485;-83
2022/12/12 12:08:39;;;;;;;79.83;32.20;;;-0.30;99.90;;;;;;10322261;28;20101;-83
2022/12/12 12:14:05;;;;;;;86.77;36.10;;;-0.20;99.90;;;;;;10324621;28;20026;-83
2022/12/12 12:19:34;;;;;;;90.17;36.17;;;-0.20;99.90;;;;;;10326062;28;20030;-83
2022/12/12 12:25:07;;;;;;;86.93;35.70;;;-0.10;99.90;;;;;;10325943;28;20065;-83
2022/12/12 12:30:21;;;;;;;83.77;34.17;;;-0.10;99.90;;;;;;10325435;28;20104;-85
2022/12/12 12:35:29;;;;;;;115.97;43.90;;;-0.10;99.90;;;;;;10325006;28;20060;-82
2022/12/12 12:40:50;;;;;;;122.03;47.73;;;-0.10;99.90;;;;;;10325663;28;20650;-83
2022/12/12 12:45:59;;;;;;;86.17;36.57;;;-0.10;99.90;;;;;;10322903;28;20033;-86
2022/12/12 12:51:23;;;;;;;112.97;48.43;;;-0.20;99.90;;;;;;10324343;28;20041;-88
2022/12/12 12:56:39;;;;;;;97.67;43.90;;;-0.20;99.90;;;;;;10324836;28;20125;-83
2022/12/12 13:01:44;;;;;;;126.90;48.13;;;-0.30;99.90;;;;;;10323949;28;20113;-88
2022/12/12 13:07:04;;;;;;;110.93;47.00;;;-0.30;99.90;;;;;;10324650;28;20489;-87
2022/12/12 13:12:33;;;;;;;95.47;41.53;;;-0.40;99.90;;;;;;10312544;28;20446;-84
2022/12/12 13:17:53;;;;;;;78.67;31.00;;;-0.50;99.90;;;;;;10313437;28;20050;-83
2022/12/12 13:23:11;;;;;;;122.77;54.73;;;-0.50;99.90;;;;;;10323417;28;20043;-84
2022/12/12 13:28:17;;;;;;;91.00;38.87;;;-0.50;99.90;;;;;;10322920;28;20034;-87
2022/12/12 13:33:40;;;;;;;87.70;36.53;;;-0.50;99.90;;;;;;10323267;28;20058;-84
2022/12/12 13:38:47;;;;;;;110.83;47.00;;;-0.50;99.90;;;;;;10320841;28;20580;-83
2022/12/12 13:43:57;;;;;;;93.43;42.07;;;-0.60;99.90;;;;;;10323352;28;20022;-85
2022/12/12 13:49:10;;;;;;;142.53;58.63;;;-0.70;99.90;;;;;;10322085;28;20038;-84
2022/12/12 13:54:10;;;;;;;119.83;46.70;;;-0.60;99.90;;;;;;10320658;28;20109;-84
2022/12/12 13:59:26;;;;;;;121.60;52.27;;;-0.70;99.90;;;;;;10319584;28;20038;-85
2022/12/12 14:04:42;;;;;;;114.43;45.65;;;-0.70;99.90;;;;;;10320737;28;20486;-88
2022/12/12 14:09:45;;;;;;;;;;;-0.70;99.90;;;;;;10322544;28;20145;-83
2022/12/12 14:14:59;;;;;;;143.07;56.67;;;-0.70;99.90;;;;;;10318685;28;19964;-83
2022/12/12 14:20:00;;;;;;;146.63;59.37;;;-0.80;99.90;;;;;;10319932;28;20029;-86
2022/12/12 14:25:33;;;;;;;108.60;44.67;;;-0.70;99.90;;;;;;10313623;28;20034;-83
2022/12/12 14:30:46;;;;;;;103.30;43.73;;;-0.80;99.90;;;;;;10314623;28;20033;-83
2022/12/12 14:36:01;;;;;;;134.77;55.40;;;-0.80;99.90;;;;;;10320659;28;20066;-84
2022/12/12 14:41:09;;;;;;;113.85;47.22;;;-0.80;99.90;;;;;;10320642;28;20038;-87
2022/12/12 14:46:17;;;;;;;102.27;40.37;;;-0.80;99.90;;;;;;10318978;28;20058;-89
2022/12/12 14:51:36;;;;;;;100.87;42.20;;;-0.80;99.90;;;;;;10315457;28;20041;-84
2022/12/12 14:57:00;;;;;;;114.17;47.53;;;-0.80;99.90;;;;;;10320091;28;20048;-85
2022/12/12 15:02:11;;;;;;;151.70;57.07;;;-0.80;99.90;;;;;;10317642;28;20577;-82
2022/12/12 15:07:39;;;;;;;170.97;66.30;;;-0.80;99.90;;;;;;10304898;28;20652;-90
2022/12/12 15:12:43;;;;;;;131.27;53.27;;;-0.80;99.90;;;;;;10313972;28;20425;-82
2022/12/12 15:17:48;;;;;;;122.10;52.00;;;-0.80;99.90;;;;;;10327348;28;20053;-81
2022/12/12 15:22:53;;;;;;;105.95;43.08;;;-0.70;99.90;;;;;;10315936;28;20390;-84
2022/12/12 15:27:54;;;;;;;127.88;54.78;;;-0.70;99.90;;;;;;10325020;28;20030;-82
2022/12/12 15:32:57;;;;;;;128.43;54.20;;;-0.70;99.90;;;;;;10324640;28;20193;-82
2022/12/12 15:38:00;;;;;;;117.07;43.53;;;-0.70;99.90;;;;;;10326587;28;20042;-82
2022/12/12 15:43:16;;;;;;;159.97;59.27;;;-0.70;99.90;;;;;;10326817;28;20415;-89
2022/12/12 15:48:17;;;;;;;157.65;59.83;;;-0.70;99.90;;;;;;10326833;28;20035;-86
2022/12/12 15:53:28;;;;;;;120.43;44.77;;;-0.70;99.90;;;;;;10319738;28;20050;-83
2022/12/12 15:58:41;;;;;;;159.77;54.93;;;-0.60;99.90;;;;;;10324809;28;20045;-86
2022/12/12 16:03:55;;;;;;;137.07;48.33;;;-0.60;99.90;;;;;;10323851;28;20030;-84
2022/12/12 16:09:06;;;;;;;103.37;37.57;;;-0.60;99.90;;;;;;10326007;28;20498;-82
2022/12/12 16:14:27;;;;;;;109.47;38.63;;;-0.60;99.90;;;;;;10324741;28;20041;-88
2022/12/12 16:19:46;;;;;;;84.23;30.60;;;-0.60;99.90;;;;;;10312512;28;20042;-84
2022/12/12 16:24:52;;;;;;;68.77;25.37;;;-0.50;99.90;;;;;;10312528;28;20386;-83
2022/12/12 16:29:53;;;;;;;65.63;26.10;;;-0.60;99.90;;;;;;10325045;28;20038;-85
2022/12/12 16:34:53;;;;;;;97.50;40.27;;;-0.60;99.90;;;;;;10323546;28;20506;-84
2022/12/12 16:39:54;;;;;;;83.57;30.90;;;-0.50;99.90;;;;;;10324535;28;20077;-85
2022/12/12 16:44:54;;;;;;;57.77;23.17;;;-0.50;99.90;;;;;;10323776;28;20030;-83
2022/12/12 16:49:55;;;;;;;61.50;23.50;;;-0.50;99.90;;;;;;10299216;28;20029;-85
2022/12/12 16:54:56;;;;;;;49.47;19.43;;;-0.50;99.90;;;;;;10322764;28;20569;-87
2022/12/12 16:59:57;;;;;;;44.80;19.03;;;-0.50;99.90;;;;;;10323059;28;20035;-84
2022/12/12 17:04:57;;;;;;;52.67;18.03;;;-0.50;99.90;;;;;;10320528;28;20034;-85
2022/12/12 17:09:58;;;;;;;40.13;17.10;;;-0.50;99.90;;;;;;10320594;28;20084;-82
2022/12/12 17:14:58;;;;;;;48.67;18.97;;;-0.50;99.90;;;;;;10322331;28;20597;-84
2022/12/12 17:19:59;;;;;;;41.93;16.07;;;-0.50;99.90;;;;;;10321720;28;20065;-81
2022/12/12 17:24:59;;;;;;;40.87;16.43;;;-0.50;99.90;;;;;;10322889;28;20053;-82
2022/12/12 17:30:00;;;;;;;36.33;16.10;;;-0.60;99.90;;;;;;10319633;28;20030;-83
2022/12/12 17:35:01;;;;;;;39.30;16.40;;;-0.50;99.90;;;;;;10321686;28;20058;-83
2022/12/12 17:40:03;;;;;;;36.37;15.03;;;-0.50;99.90;;;;;;10353685;28;20052;-83
2022/12/12 17:45:05;;;;;;;30.63;13.67;;;-0.60;99.90;;;;;;10321676;28;20030;-82
2022/12/12 17:50:06;;;;;;;33.57;13.83;;;-0.50;99.90;;;;;;10321220;28;20045;-82
2022/12/12 17:55:07;;;;;;;38.00;17.00;;;-0.60;99.90;;;;;;10321014;28;20038;-82
2022/12/12 18:00:08;;;;;;;30.63;13.73;;;-0.60;99.90;;;;;;10320942;28;20026;-83
2022/12/12 18:05:09;;;;;;;28.60;13.00;;;-0.60;99.90;;;;;;10318784;28;20067;-82
2022/12/12 18:10:10;;;;;;;28.00;12.67;;;-0.60;99.90;;;;;;10320083;28;20122;-84
2022/12/12 18:15:10;;;;;;;28.80;12.47;;;-0.60;99.90;;;;;;10319308;28;20739;-83
2022/12/12 18:20:11;;;;;;;26.73;12.63;;;-0.60;99.90;;;;;;10317401;28;20038;-82
2022/12/12 18:25:11;;;;;;;28.57;12.03;;;-0.70;99.90;;;;;;10319092;28;20102;-88
2022/12/12 18:30:12;;;;;;;28.73;13.30;;;-0.70;99.90;;;;;;10320668;28;20030;-84
2022/12/12 18:35:13;;;;;;;29.50;10.83;;;-0.70;99.90;;;;;;10320023;28;20054;-83
2022/12/12 18:40:14;;;;;;;34.67;15.63;;;-0.70;99.90;;;;;;10320683;28;20019;-87
2022/12/12 18:45:15;;;;;;;29.67;14.70;;;-0.70;99.90;;;;;;10317170;28;20113;-83
2022/12/12 18:50:15;;;;;;;29.93;13.20;;;-0.70;99.90;;;;;;10306237;28;20501;-86
2022/12/12 18:55:16;;;;;;;28.60;12.97;;;-0.70;99.90;;;;;;10319778;28;20053;-86
2022/12/12 19:00:19;;;;;;;30.77;13.73;;;-0.80;99.90;;;;;;10320177;28;20081;-85
2022/12/12 19:05:19;;;;;;;29.73;14.07;;;-0.70;99.90;;;;;;10310397;28;20370;-84
2022/12/12 19:10:20;;;;;;;31.97;12.93;;;-0.80;99.90;;;;;;10317776;28;20042;-85
2022/12/12 19:15:20;;;;;;;32.57;14.90;;;-0.80;99.90;;;;;;10322283;28;20598;-85
2022/12/12 19:20:22;;;;;;;35.03;13.77;;;-0.80;99.90;;;;;;10318611;28;20034;-84
2022/12/12 19:25:22;;;;;;;35.33;14.97;;;-0.80;99.90;;;;;;10320915;28;20030;-84
2022/12/12 19:30:26;;;;;;;32.63;13.70;;;-0.80;99.90;;;;;;10322567;28;20030;-85
2022/12/12 19:35:27;;;;;;;25.13;10.53;;;-0.80;99.90;;;;;;10311536;28;20053;-85
2022/12/12 19:40:28;;;;;;;27.70;12.50;;;-0.80;99.90;;;;;;10316781;28;20041;-85
2022/12/12 19:45:28;;;;;;;28.00;12.23;;;-0.80;99.90;;;;;;10318163;28;20054;-87
2022/12/12 19:50:29;;;;;;;25.43;11.77;;;-0.90;99.90;;;;;;10320186;28;20035;-84
2022/12/12 19:55:29;;;;;;;37.63;13.80;;;-0.90;99.90;;;;;;10318827;28;20145;-84
2022/12/12 20:00:30;;;;;;;47.47;20.43;;;-0.90;99.90;;;;;;10327273;28;20038;-83
2022/12/12 20:05:31;;;;;;;63.70;23.63;;;-0.90;99.90;;;;;;10319285;28;20030;-87
2022/12/12 20:10:35;;;;;;;38.50;16.30;;;-0.90;99.90;;;;;;10327693;28;20030;-89
2022/12/12 20:15:37;;;;;;;49.70;19.83;;;-0.90;99.90;;;;;;10322265;28;20037;-83
2022/12/12 20:20:37;;;;;;;63.20;25.70;;;-0.90;99.90;;;;;;10319395;28;20458;-82
2022/12/12 20:25:40;;;;;;;42.80;19.43;;;-0.90;99.90;;;;;;10323335;28;20117;-82
2022/12/12 20:30:41;;;;;;;38.23;16.43;;;-1.00;99.90;;;;;;10353154;28;20034;-83
2022/12/12 20:35:41;;;;;;;39.40;16.60;;;-1.00;99.90;;;;;;10321997;28;21973;-82
2022/12/12 20:40:42;;;;;;;47.63;20.27;;;-1.10;99.90;;;;;;10352379;28;20030;-83
2022/12/12 20:45:42;;;;;;;52.17;22.17;;;-1.00;99.90;;;;;;10319773;28;20504;-82
2022/12/12 20:50:43;;;;;;;58.53;23.63;;;-1.10;99.90;;;;;;10317234;28;20026;-83
2022/12/12 20:55:43;;;;;;;54.27;22.77;;;-1.20;99.90;;;;;;10317826;28;20390;-87
2022/12/12 21:00:44;;;;;;;56.77;23.90;;;-1.20;99.90;;;;;;10319572;28;20109;-83
2022/12/12 21:05:44;;;;;;;50.77;21.73;;;-1.20;99.90;;;;;;10318155;28;20130;-82
2022/12/12 21:10:45;;;;;;;46.77;19.00;;;-1.20;99.90;;;;;;10318759;28;20528;-82
2022/12/12 21:15:46;;;;;;;46.70;18.87;;;-1.30;99.90;;;;;;10319676;28;20073;-82
2022/12/12 21:20:46;;;;;;;40.60;15.83;;;-1.30;99.90;;;;;;10319905;28;20109;-82
2022/12/12 21:25:47;;;;;;;51.77;20.80;;;-1.40;99.90;;;;;;10319883;28;20033;-87
2022/12/12 21:30:47;;;;;;;66.83;25.40;;;-1.40;99.90;;;;;;10349311;28;20041;-83
2022/12/12 21:35:48;;;;;;;36.23;15.67;;;-1.40;99.90;;;;;;10318600;28;20050;-82
2022/12/12 21:40:49;;;;;;;76.57;29.77;;;-1.40;99.90;;;;;;10318167;28;20042;-84
2022/12/12 21:45:49;;;;;;;42.70;17.03;;;-1.50;99.90;;;;;;10318858;28;20034;-82
2022/12/12 21:50:50;;;;;;;49.17;20.57;;;-1.50;99.90;;;;;;10319148;28;20097;-84
2022/12/12 21:55:50;;;;;;;55.67;20.97;;;-1.50;99.90;;;;;;10317937;28;20034;-82
2022/12/12 22:00:51;;;;;;;48.70;20.73;;;-1.60;99.90;;;;;;10317008;28;20033;-82
2022/12/12 22:05:51;;;;;;;40.80;16.93;;;-1.60;99.90;;;;;;10317609;28;20026;-82
2022/12/12 22:10:52;;;;;;;53.50;21.13;;;-1.60;99.90;;;;;;10317981;28;20109;-84
2022/12/12 22:15:57;;;;;;;30.97;13.60;;;-1.60;99.90;;;;;;10317539;28;20453;-83
2022/12/12 22:21:07;;;;;;;39.13;16.45;;;-1.60;99.90;;;;;;10348686;28;21618;-82
2022/12/12 22:26:15;;;;;;;44.03;17.40;;;-1.70;99.90;;;;;;10316679;28;20034;-85
2022/12/12 22:31:17;;;;;;;33.17;14.40;;;-1.70;99.90;;;;;;10315533;28;20057;-82
2022/12/12 22:36:23;;;;;;;41.77;16.93;;;-1.70;99.90;;;;;;10315936;28;20054;-82
2022/12/12 22:41:25;;;;;;;39.27;17.03;;;-1.70;99.90;;;;;;10317283;28;20065;-84
2022/12/12 22:46:26;;;;;;;32.53;14.27;;;-1.80;99.90;;;;;;10316660;28;20037;-87
2022/12/12 22:51:30;;;;;;;48.57;20.33;;;-1.80;99.90;;;;;;10315164;28;20426;-81
2022/12/12 22:56:33;;;;;;;38.40;15.93;;;-1.80;99.90;;;;;;10317267;28;20049;-82
2022/12/12 23:01:34;;;;;;;45.90;18.80;;;-1.80;99.90;;;;;;10315723;28;20503;-82
2022/12/12 23:06:35;;;;;;;44.07;18.20;;;-1.90;99.90;;;;;;10348812;28;20027;-83
2022/12/12 23:11:35;;;;;;;36.13;14.47;;;-1.90;99.90;;;;;;10317833;28;20029;-83
2022/12/12 23:16:36;;;;;;;33.23;14.43;;;-1.90;99.90;;;;;;10315826;28;20053;-87
2022/12/12 23:21:37;;;;;;;38.40;16.97;;;-2.00;99.90;;;;;;10312392;28;20049;-82
2022/12/12 23:26:37;;;;;;;43.80;18.00;;;-2.00;99.90;;;;;;10316625;28;20113;-84
2022/12/12 23:31:38;;;;;;;43.93;18.20;;;-2.10;99.90;;;;;;10319232;28;20019;-88
2022/12/12 23:36:39;;;;;;;35.50;16.70;;;-2.10;99.90;;;;;;10324039;28;20062;-82
2022/12/12 23:41:40;;;;;;;34.73;16.30;;;-2.10;99.90;;;;;;10322319;28;20089;-83
2022/12/12 23:46:41;;;;;;;36.57;16.10;;;-2.10;99.90;;;;;;10324513;28;20098;-82
2022/12/12 23:51:56;;;;;;;36.47;14.43;;;-2.10;99.90;;;;;;10324216;28;20066;-82
2022/12/12 23:56:58;;;;;;;40.33;17.03;;;-2.10;99.90;;;;;;10323334;28;20753;-86
